メインページ
METAR-TAF:

METAR-TAF

空港 :

エルサルバドル, エルサルバドル

エルサルバドル国際空港

緯度: 13-26N, 経度: 089-03W, 海抜: 25m

現時点の気象観測

当レポートは52分前の18:50(UTC)に作成
南/南西の風 10kt、から西/南西の間で変化する
気温 33°C
湿度 39%
気圧 1012 hPa
視程10km以上
高度7800ftの雲はほとんどない
煙霧

METAR: MSLP 251850Z 21010KT 170V250 9999 FEW078 33/17 Q1012 A2989 HZ NOSIG

時間: 13:42 (19:42 UTC)

予報

当レポートは4時間17分前の15:25(UTC)に作成
予報は25日の 18時(UTC)から 26日の 18時(UTC)まで有効
南西の風 12kt
視程10km以上
高度6000ftの雲はほとんどない
26日の 00時(UTC)から 26日の 04時(UTC)まで一時的に
西の風 7kt
26日の 0400時(UTC)から
北東の風 7kt
視程10km以上
1,500メートル以下は雲なし、積乱雲なし

TAF: MSLP 251525Z 2518/2618 22012KT 9999 FEW060 TX35/18Z TN20/11Z TEMPO 2600/2604 26007KT FM260400 04007KT CAVOK

4,000以上の空港の気象観測と天気予報(METAR報とTAF報)

利用可能な観測所は地図上に黄色い丸と赤い丸で示す。

丸の上にカーソルを重ねると観測所名を参照できる。

次にクリックすると気象観測と天気予報を参照できる。

マップの切り替え:黒色「×」印の緑ボタンをクリックして拡大、「-」印の緑ボタンをクリックして縮小、緑色の三角印をクリックして隣りの地図に切り替え


METAR-TAF: